Weather at Luis Munoz Marin International Airport

Public forecast

Using degrees Celsius for public forecast. Weather courtesy of forecast.io.

Current aviation weather report (METAR) for Luis Munoz Marin International Airport

Report is more than 2 hours old.

Retrieved 2021/10/25 13:56 UTC (3 hours ago):

TJSJ 251356Z 09011KT 10SM FEW026 30/22 A3007

Aviation forecast (TAF) for Luis Munoz Marin International Airport

Retrieved 2021/10/25 12:24 UTC (5 hours ago):

TAF TJSJ 251120Z 2512/2612 VRB05KT P6SM VCSH SCT025 SCT070 FM251400 07012KT P6SM VCSH FEW026 SCT035 BKN060 FM252100 10007KT P6SM FEW035 SCT070